Terminal Aerodrome Forecast
Issued by NWS

Home | Current Version | Previous Version | Text Only | Print | Product List | Glossary On
Versions: 1 2 3 4 5 6 7 8 9 10 11 12 13 14 15 16 17 18
000
FTUS43 KDVN 201300 AAC
TAFBRL
TAF AMD
KBRL 201329Z 2013/2112 22008KT 5SM BR VCSH SCT020 BKN070
      TEMPO 2014/2016 4SM BR BKN040
     FM201700 25011KT P6SM VCTS SCT015 BKN050CB
     FM202000 26012G18KT P6SM SCT050
     FM210000 28005KT P6SM SKC=

USA.gov is the U.S. government's official web portal to all federal, state and local government web resources and services.